<?xml version="1.0" encoding="utf-8"?>
<gpx xmlns:xsi="http://www.w3.org/2001/XMLSchema-instance" xmlns:xsd="http://www.w3.org/2001/XMLSchema" version="1.1" creator="Shapelink.com" xmlns="http://www.topografix.com/GPX/1/1" xmlns:gpxtpx="http://www.garmin.com/xmlschemas/TrackPointExtension/v1">
  <metadata>
    <name>Gåing 0.30 km, 2012-04-22</name>
    <desc></desc>
    <author><name>Mikael Blom</name></author> 
    <time>2012-04-22T13:26:44Z</time>
  </metadata>
  <trk>
    <name>Gåing 0.30 km, 2012-04-22</name>
    <trkseg>
      <trkpt lat="59.9763723" lon="17.7397325">
        <ele>28.4962</ele>
        <time>2012-04-22T13:26:44Z</time>
      </trkpt>
      <trkpt lat="59.9764677" lon="17.7395632">
        <ele>27.0543</ele>
        <time>2012-04-22T13:26:53Z</time>
      </trkpt>
      <trkpt lat="59.9765886" lon="17.739445">
        <ele>26.0929</ele>
        <time>2012-04-22T13:27:02Z</time>
      </trkpt>
      <trkpt lat="59.9766701" lon="17.7394128">
        <ele>25.1317</ele>
        <time>2012-04-22T13:27:08Z</time>
      </trkpt>
      <trkpt lat="59.9767046" lon="17.7393989">
        <ele>25.6123</ele>
        <time>2012-04-22T13:27:10Z</time>
      </trkpt>
      <trkpt lat="59.9767924" lon="17.7393526">
        <ele>26.0929</ele>
        <time>2012-04-22T13:27:17Z</time>
      </trkpt>
      <trkpt lat="59.9769042" lon="17.7393076">
        <ele>26.0929</ele>
        <time>2012-04-22T13:27:26Z</time>
      </trkpt>
      <trkpt lat="59.9769671" lon="17.7392966">
        <ele>27.5349</ele>
        <time>2012-04-22T13:27:31Z</time>
      </trkpt>
      <trkpt lat="59.9770385" lon="17.7392648">
        <ele>26.5736</ele>
        <time>2012-04-22T13:27:38Z</time>
      </trkpt>
      <trkpt lat="59.9771526" lon="17.739194">
        <ele>27.5349</ele>
        <time>2012-04-22T13:27:47Z</time>
      </trkpt>
      <trkpt lat="59.977249" lon="17.7391347">
        <ele>28.4962</ele>
        <time>2012-04-22T13:27:54Z</time>
      </trkpt>
      <trkpt lat="59.9773278" lon="17.7390777">
        <ele>29.9381</ele>
        <time>2012-04-22T13:28:00Z</time>
      </trkpt>
      <trkpt lat="59.9774494" lon="17.7390093">
        <ele>32.3416</ele>
        <time>2012-04-22T13:28:08Z</time>
      </trkpt>
      <trkpt lat="59.977527" lon="17.7389724">
        <ele>32.3416</ele>
        <time>2012-04-22T13:28:14Z</time>
      </trkpt>
      <trkpt lat="59.9776461" lon="17.7389446">
        <ele>33.7834</ele>
        <time>2012-04-22T13:28:23Z</time>
      </trkpt>
      <trkpt lat="59.9777654" lon="17.73897">
        <ele>33.7834</ele>
        <time>2012-04-22T13:28:32Z</time>
      </trkpt>
      <trkpt lat="59.9778985" lon="17.7390145">
        <ele>35.7061</ele>
        <time>2012-04-22T13:28:41Z</time>
      </trkpt>
      <trkpt lat="59.9780074" lon="17.7390834">
        <ele>37.1481</ele>
        <time>2012-04-22T13:28:49Z</time>
      </trkpt>
      <trkpt lat="59.978096" lon="17.7391397">
        <ele>38.5901</ele>
        <time>2012-04-22T13:28:56Z</time>
      </trkpt>
      <trkpt lat="59.9781844" lon="17.7391875">
        <ele>39.5513</ele>
        <time>2012-04-22T13:29:03Z</time>
      </trkpt>
      <trkpt lat="59.9781953" lon="17.7391859">
        <ele>39.0707</ele>
        <time>2012-04-22T13:29:04Z</time>
      </trkpt>
      <trkpt lat="59.9782754" lon="17.7392102">
        <ele>37.6287</ele>
        <time>2012-04-22T13:29:11Z</time>
      </trkpt>
      <trkpt lat="59.978337" lon="17.7392076">
        <ele>37.6287</ele>
        <time>2012-04-22T13:29:16Z</time>
      </trkpt>
      <trkpt lat="59.9783964" lon="17.7392155">
        <ele>38.5901</ele>
        <time>2012-04-22T13:29:21Z</time>
      </trkpt>
      <trkpt lat="59.9784101" lon="17.7392176">
        <ele>38.5901</ele>
        <time>2012-04-22T13:29:22Z</time>
      </trkpt>
      <trkpt lat="59.9784755" lon="17.739233">
        <ele>37.6287</ele>
        <time>2012-04-22T13:29:27Z</time>
      </trkpt>
      <trkpt lat="59.9785183" lon="17.7392322">
        <ele>36.1868</ele>
        <time>2012-04-22T13:29:31Z</time>
      </trkpt>
      <trkpt lat="59.9786184" lon="17.7392704">
        <ele>35.7061</ele>
        <time>2012-04-22T13:29:38Z</time>
      </trkpt>
      <trkpt lat="59.978675" lon="17.7392847">
        <ele>35.2255</ele>
        <time>2012-04-22T13:29:42Z</time>
      </trkpt>
      <trkpt lat="59.9787662" lon="17.7393002">
        <ele>35.2255</ele>
        <time>2012-04-22T13:29:49Z</time>
      </trkpt>
      <trkpt lat="59.9787785" lon="17.739309">
        <ele>34.7449</ele>
        <time>2012-04-22T13:29:50Z</time>
      </trkpt>
      <trkpt lat="59.9788629" lon="17.7393689">
        <ele>33.3029</ele>
        <time>2012-04-22T13:29:56Z</time>
      </trkpt>
      <trkpt lat="59.9789054" lon="17.7394191">
        <ele>33.7834</ele>
        <time>2012-04-22T13:30:00Z</time>
      </trkpt>
    </trkseg>
  </trk>
</gpx>